sensor_id;sensor_type;location;lat;lon;timestamp;temperature;humidity
316;DHT22;14128;48.686;9.738;2023-06-19T00:01:05;21.50;1.00
316;DHT22;14128;48.686;9.738;2023-06-19T00:03:31;21.50;1.00
316;DHT22;14128;48.686;9.738;2023-06-19T00:05:58;21.50;99.90
316;DHT22;14128;48.686;9.738;2023-06-19T00:08:25;21.50;1.00
316;DHT22;14128;48.686;9.738;2023-06-19T00:10:52;21.50;1.00
316;DHT22;14128;48.686;9.738;2023-06-19T00:13:19;21.50;1.00
316;DHT22;14128;48.686;9.738;2023-06-19T00:15:48;21.50;1.00
316;DHT22;14128;48.686;9.738;2023-06-19T00:18:15;21.50;1.00
316;DHT22;14128;48.686;9.738;2023-06-19T00:20:43;21.40;1.00
316;DHT22;14128;48.686;9.738;2023-06-19T00:23:11;21.40;1.00
316;DHT22;14128;48.686;9.738;2023-06-19T00:25:40;21.30;99.90
316;DHT22;14128;48.686;9.738;2023-06-19T00:28:07;21.30;1.00
316;DHT22;14128;48.686;9.738;2023-06-19T00:30:39;21.20;1.00
316;DHT22;14128;48.686;9.738;2023-06-19T00:33:07;21.20;99.90
316;DHT22;14128;48.686;9.738;2023-06-19T00:35:34;21.20;99.90
316;DHT22;14128;48.686;9.738;2023-06-19T00:38:01;21.20;1.00
316;DHT22;14128;48.686;9.738;2023-06-19T00:40:29;21.20;99.90
316;DHT22;14128;48.686;9.738;2023-06-19T00:42:57;21.10;99.90
316;DHT22;14128;48.686;9.738;2023-06-19T00:45:24;21.20;99.90
316;DHT22;14128;48.686;9.738;2023-06-19T00:47:51;21.20;99.90
316;DHT22;14128;48.686;9.738;2023-06-19T00:50:19;21.20;99.90
316;DHT22;14128;48.686;9.738;2023-06-19T00:52:46;21.10;1.00
316;DHT22;14128;48.686;9.738;2023-06-19T00:55:15;21.10;1.00
316;DHT22;14128;48.686;9.738;2023-06-19T00:57:43;21.00;1.00
316;DHT22;14128;48.686;9.738;2023-06-19T01:00:11;21.00;99.90
316;DHT22;14128;48.686;9.738;2023-06-19T01:02:38;20.90;99.90
316;DHT22;14128;48.686;9.738;2023-06-19T01:05:05;20.90;99.90
316;DHT22;14128;48.686;9.738;2023-06-19T01:07:44;20.90;99.90
316;DHT22;14128;48.686;9.738;2023-06-19T01:10:16;20.90;99.90
316;DHT22;14128;48.686;9.738;2023-06-19T01:12:55;20.90;99.90
316;DHT22;14128;48.686;9.738;2023-06-19T01:15:23;20.90;99.90
316;DHT22;14128;48.686;9.738;2023-06-19T01:17:50;20.90;99.90
316;DHT22;14128;48.686;9.738;2023-06-19T01:20:17;20.80;99.90
316;DHT22;14128;48.686;9.738;2023-06-19T01:22:45;20.70;99.90
316;DHT22;14128;48.686;9.738;2023-06-19T01:25:12;20.60;1.00
316;DHT22;14128;48.686;9.738;2023-06-19T01:27:40;20.50;99.90
316;DHT22;14128;48.686;9.738;2023-06-19T01:30:09;20.40;99.90
316;DHT22;14128;48.686;9.738;2023-06-19T01:32:44;20.20;99.90
316;DHT22;14128;48.686;9.738;2023-06-19T01:35:15;20.20;1.00
316;DHT22;14128;48.686;9.738;2023-06-19T01:37:47;20.10;99.90
316;DHT22;14128;48.686;9.738;2023-06-19T01:40:16;20.00;1.00
316;DHT22;14128;48.686;9.738;2023-06-19T01:42:46;20.00;1.00
316;DHT22;14128;48.686;9.738;2023-06-19T01:45:13;19.90;99.90
316;DHT22;14128;48.686;9.738;2023-06-19T01:47:40;19.90;99.90
316;DHT22;14128;48.686;9.738;2023-06-19T01:50:08;19.90;99.90
316;DHT22;14128;48.686;9.738;2023-06-19T01:52:37;19.90;1.00
316;DHT22;14128;48.686;9.738;2023-06-19T01:55:06;19.80;1.00
316;DHT22;14128;48.686;9.738;2023-06-19T01:57:35;19.80;1.00
316;DHT22;14128;48.686;9.738;2023-06-19T02:00:03;19.80;99.90
316;DHT22;14128;48.686;9.738;2023-06-19T02:02:31;19.90;1.00
316;DHT22;14128;48.686;9.738;2023-06-19T02:04:57;19.90;1.00
316;DHT22;14128;48.686;9.738;2023-06-19T02:07:24;19.90;99.90
316;DHT22;14128;48.686;9.738;2023-06-19T02:09:51;19.90;99.90
316;DHT22;14128;48.686;9.738;2023-06-19T02:12:19;19.90;99.90
316;DHT22;14128;48.686;9.738;2023-06-19T02:14:46;19.90;1.40
316;DHT22;14128;48.686;9.738;2023-06-19T02:17:13;19.90;99.90
316;DHT22;14128;48.686;9.738;2023-06-19T02:19:40;19.90;99.90
316;DHT22;14128;48.686;9.738;2023-06-19T02:22:06;19.80;99.90
316;DHT22;14128;48.686;9.738;2023-06-19T02:24:33;19.60;99.90
316;DHT22;14128;48.686;9.738;2023-06-19T02:27:00;19.50;1.00
316;DHT22;14128;48.686;9.738;2023-06-19T02:29:29;19.50;99.90
316;DHT22;14128;48.686;9.738;2023-06-19T02:31:55;19.40;99.90
316;DHT22;14128;48.686;9.738;2023-06-19T02:34:22;19.30;99.90
316;DHT22;14128;48.686;9.738;2023-06-19T02:36:50;19.20;99.90
316;DHT22;14128;48.686;9.738;2023-06-19T02:39:16;19.10;99.90
316;DHT22;14128;48.686;9.738;2023-06-19T02:41:43;19.10;99.90
316;DHT22;14128;48.686;9.738;2023-06-19T02:44:12;19.10;99.90
316;DHT22;14128;48.686;9.738;2023-06-19T02:46:40;19.10;99.90
316;DHT22;14128;48.686;9.738;2023-06-19T02:49:07;19.00;99.90
316;DHT22;14128;48.686;9.738;2023-06-19T02:51:34;19.00;99.90
316;DHT22;14128;48.686;9.738;2023-06-19T02:54:01;18.90;99.90
316;DHT22;14128;48.686;9.738;2023-06-19T02:56:28;19.00;99.90
316;DHT22;14128;48.686;9.738;2023-06-19T02:58:55;18.90;99.90
316;DHT22;14128;48.686;9.738;2023-06-19T03:01:21;18.90;1.00
316;DHT22;14128;48.686;9.738;2023-06-19T03:03:50;18.80;99.90
316;DHT22;14128;48.686;9.738;2023-06-19T03:06:18;18.70;99.90
316;DHT22;14128;48.686;9.738;2023-06-19T03:08:45;18.70;99.90
316;DHT22;14128;48.686;9.738;2023-06-19T03:11:12;18.60;99.90
316;DHT22;14128;48.686;9.738;2023-06-19T03:13:44;18.50;99.90
316;DHT22;14128;48.686;9.738;2023-06-19T03:16:12;18.60;99.90
316;DHT22;14128;48.686;9.738;2023-06-19T03:18:40;18.50;99.90
316;DHT22;14128;48.686;9.738;2023-06-19T03:21:08;18.50;99.90
316;DHT22;14128;48.686;9.738;2023-06-19T03:23:34;18.50;99.90
316;DHT22;14128;48.686;9.738;2023-06-19T03:26:01;18.50;99.90
316;DHT22;14128;48.686;9.738;2023-06-19T03:28:28;18.50;1.00
316;DHT22;14128;48.686;9.738;2023-06-19T03:30:55;18.50;1.00
316;DHT22;14128;48.686;9.738;2023-06-19T03:33:22;18.50;99.90
316;DHT22;14128;48.686;9.738;2023-06-19T03:35:49;18.50;99.90
316;DHT22;14128;48.686;9.738;2023-06-19T03:38:17;18.50;99.90
316;DHT22;14128;48.686;9.738;2023-06-19T03:40:44;18.50;99.90
316;DHT22;14128;48.686;9.738;2023-06-19T03:43:11;18.50;99.90
316;DHT22;14128;48.686;9.738;2023-06-19T03:45:37;18.40;99.90
316;DHT22;14128;48.686;9.738;2023-06-19T03:48:04;18.40;99.90
316;DHT22;14128;48.686;9.738;2023-06-19T03:50:31;18.40;1.00
316;DHT22;14128;48.686;9.738;2023-06-19T03:52:58;18.40;99.90
316;DHT22;14128;48.686;9.738;2023-06-19T03:55:26;18.50;95.60
316;DHT22;14128;48.686;9.738;2023-06-19T03:57:53;18.50;99.90
316;DHT22;14128;48.686;9.738;2023-06-19T04:00:20;18.50;99.90
316;DHT22;14128;48.686;9.738;2023-06-19T04:02:46;18.50;99.90
316;DHT22;14128;48.686;9.738;2023-06-19T04:05:14;18.60;99.90
316;DHT22;14128;48.686;9.738;2023-06-19T04:07:41;18.60;99.90
316;DHT22;14128;48.686;9.738;2023-06-19T04:10:08;18.70;99.90
316;DHT22;14128;48.686;9.738;2023-06-19T04:12:38;18.80;99.90
316;DHT22;14128;48.686;9.738;2023-06-19T04:15:06;18.80;99.90
316;DHT22;14128;48.686;9.738;2023-06-19T04:17:33;18.90;99.90
316;DHT22;14128;48.686;9.738;2023-06-19T04:19:59;19.00;99.90
316;DHT22;14128;48.686;9.738;2023-06-19T04:22:26;19.00;66.60
316;DHT22;14128;48.686;9.738;2023-06-19T04:24:53;19.00;99.90
316;DHT22;14128;48.686;9.738;2023-06-19T04:27:20;19.10;99.90
316;DHT22;14128;48.686;9.738;2023-06-19T04:29:48;19.20;65.50
316;DHT22;14128;48.686;9.738;2023-06-19T04:32:18;19.30;99.90
316;DHT22;14128;48.686;9.738;2023-06-19T04:34:45;19.50;1.00
316;DHT22;14128;48.686;9.738;2023-06-19T04:37:12;19.60;37.20
316;DHT22;14128;48.686;9.738;2023-06-19T04:39:39;19.70;99.90
316;DHT22;14128;48.686;9.738;2023-06-19T04:42:06;19.90;99.90
316;DHT22;14128;48.686;9.738;2023-06-19T04:44:33;20.00;1.00
316;DHT22;14128;48.686;9.738;2023-06-19T04:47:01;20.20;99.90
316;DHT22;14128;48.686;9.738;2023-06-19T04:49:28;20.30;99.90
316;DHT22;14128;48.686;9.738;2023-06-19T04:51:56;20.40;78.10
316;DHT22;14128;48.686;9.738;2023-06-19T04:54:24;20.60;99.90
316;DHT22;14128;48.686;9.738;2023-06-19T04:56:51;20.70;99.90
316;DHT22;14128;48.686;9.738;2023-06-19T04:59:18;20.70;1.00
316;DHT22;14128;48.686;9.738;2023-06-19T05:01:45;20.80;99.90
316;DHT22;14128;48.686;9.738;2023-06-19T05:04:13;20.90;1.00
316;DHT22;14128;48.686;9.738;2023-06-19T05:06:40;21.10;99.90
316;DHT22;14128;48.686;9.738;2023-06-19T05:09:08;21.20;99.90
316;DHT22;14128;48.686;9.738;2023-06-19T05:11:35;21.30;99.90
316;DHT22;14128;48.686;9.738;2023-06-19T05:14:02;21.40;99.90
316;DHT22;14128;48.686;9.738;2023-06-19T05:16:28;21.50;1.00
316;DHT22;14128;48.686;9.738;2023-06-19T05:18:55;21.60;99.90
316;DHT22;14128;48.686;9.738;2023-06-19T05:21:23;21.70;99.90
316;DHT22;14128;48.686;9.738;2023-06-19T05:23:50;21.80;99.90
316;DHT22;14128;48.686;9.738;2023-06-19T05:26:18;21.90;1.00
316;DHT22;14128;48.686;9.738;2023-06-19T05:28:47;22.00;99.90
316;DHT22;14128;48.686;9.738;2023-06-19T05:31:14;22.10;99.90
316;DHT22;14128;48.686;9.738;2023-06-19T05:33:40;22.10;29.60
316;DHT22;14128;48.686;9.738;2023-06-19T05:36:07;22.10;99.90
316;DHT22;14128;48.686;9.738;2023-06-19T05:38:35;22.20;99.90
316;DHT22;14128;48.686;9.738;2023-06-19T05:41:02;22.30;1.00
316;DHT22;14128;48.686;9.738;2023-06-19T05:43:29;22.40;99.90
316;DHT22;14128;48.686;9.738;2023-06-19T05:45:57;22.60;99.90
316;DHT22;14128;48.686;9.738;2023-06-19T05:48:24;22.70;99.90
316;DHT22;14128;48.686;9.738;2023-06-19T05:50:51;22.90;99.90
316;DHT22;14128;48.686;9.738;2023-06-19T05:53:18;23.00;99.90
316;DHT22;14128;48.686;9.738;2023-06-19T05:55:46;23.10;99.90
316;DHT22;14128;48.686;9.738;2023-06-19T05:58:13;23.10;99.90
316;DHT22;14128;48.686;9.738;2023-06-19T06:00:40;23.20;99.90
316;DHT22;14128;48.686;9.738;2023-06-19T06:03:07;23.30;99.90
316;DHT22;14128;48.686;9.738;2023-06-19T06:05:34;23.30;99.90
316;DHT22;14128;48.686;9.738;2023-06-19T06:08:02;23.40;99.90
316;DHT22;14128;48.686;9.738;2023-06-19T06:10:28;23.70;99.90
316;DHT22;14128;48.686;9.738;2023-06-19T06:12:57;24.10;99.90
316;DHT22;14128;48.686;9.738;2023-06-19T06:15:24;24.50;99.90
316;DHT22;14128;48.686;9.738;2023-06-19T06:17:51;24.80;1.00
316;DHT22;14128;48.686;9.738;2023-06-19T06:20:17;25.10;1.00
316;DHT22;14128;48.686;9.738;2023-06-19T06:22:44;25.30;99.90
316;DHT22;14128;48.686;9.738;2023-06-19T06:25:11;25.30;99.90
316;DHT22;14128;48.686;9.738;2023-06-19T06:27:38;25.10;1.00
316;DHT22;14128;48.686;9.738;2023-06-19T06:30:07;25.00;99.90
316;DHT22;14128;48.686;9.738;2023-06-19T06:32:34;24.90;99.90
316;DHT22;14128;48.686;9.738;2023-06-19T06:35:01;24.90;99.90
316;DHT22;14128;48.686;9.738;2023-06-19T06:37:28;24.90;99.90
316;DHT22;14128;48.686;9.738;2023-06-19T06:39:54;25.00;99.90
316;DHT22;14128;48.686;9.738;2023-06-19T06:42:21;25.10;99.90
316;DHT22;14128;48.686;9.738;2023-06-19T06:44:48;25.20;1.00
316;DHT22;14128;48.686;9.738;2023-06-19T06:47:16;25.20;1.00
316;DHT22;14128;48.686;9.738;2023-06-19T06:49:43;25.40;1.00
316;DHT22;14128;48.686;9.738;2023-06-19T06:52:10;25.50;1.00
316;DHT22;14128;48.686;9.738;2023-06-19T06:54:37;25.60;99.90
316;DHT22;14128;48.686;9.738;2023-06-19T06:57:04;25.80;1.00
316;DHT22;14128;48.686;9.738;2023-06-19T06:59:31;26.00;1.00
316;DHT22;14128;48.686;9.738;2023-06-19T07:01:58;26.00;99.90
316;DHT22;14128;48.686;9.738;2023-06-19T07:04:26;26.00;99.90
316;DHT22;14128;48.686;9.738;2023-06-19T07:06:53;25.70;99.90
316;DHT22;14128;48.686;9.738;2023-06-19T07:09:19;25.50;99.90
316;DHT22;14128;48.686;9.738;2023-06-19T07:11:47;25.20;99.90
316;DHT22;14128;48.686;9.738;2023-06-19T07:14:14;25.20;99.90
316;DHT22;14128;48.686;9.738;2023-06-19T07:16:43;25.00;1.00
316;DHT22;14128;48.686;9.738;2023-06-19T07:19:10;25.00;1.00
316;DHT22;14128;48.686;9.738;2023-06-19T07:21:38;25.00;99.90
316;DHT22;14128;48.686;9.738;2023-06-19T07:24:05;25.20;99.90
316;DHT22;14128;48.686;9.738;2023-06-19T07:26:32;25.10;1.00
316;DHT22;14128;48.686;9.738;2023-06-19T07:28:59;25.00;99.90
316;DHT22;14128;48.686;9.738;2023-06-19T07:31:26;25.00;1.00
316;DHT22;14128;48.686;9.738;2023-06-19T07:33:53;25.00;1.00
316;DHT22;14128;48.686;9.738;2023-06-19T07:36:20;25.30;1.00
316;DHT22;14128;48.686;9.738;2023-06-19T07:38:51;25.60;1.00
316;DHT22;14128;48.686;9.738;2023-06-19T07:41:18;26.10;1.00
316;DHT22;14128;48.686;9.738;2023-06-19T07:43:44;26.60;99.90
316;DHT22;14128;48.686;9.738;2023-06-19T07:46:11;27.10;1.40
316;DHT22;14128;48.686;9.738;2023-06-19T07:48:38;27.70;99.90
316;DHT22;14128;48.686;9.738;2023-06-19T07:51:05;28.10;1.00
316;DHT22;14128;48.686;9.738;2023-06-19T07:53:32;28.40;1.00
316;DHT22;14128;48.686;9.738;2023-06-19T07:56:00;28.50;1.00
316;DHT22;14128;48.686;9.738;2023-06-19T07:58:27;28.40;1.00
316;DHT22;14128;48.686;9.738;2023-06-19T08:00:53;28.50;1.00
316;DHT22;14128;48.686;9.738;2023-06-19T08:03:20;28.10;1.00
316;DHT22;14128;48.686;9.738;2023-06-19T08:05:48;28.00;1.00
316;DHT22;14128;48.686;9.738;2023-06-19T08:08:15;27.50;1.00
316;DHT22;14128;48.686;9.738;2023-06-19T08:10:42;27.40;1.00
316;DHT22;14128;48.686;9.738;2023-06-19T08:13:10;27.30;1.00
316;DHT22;14128;48.686;9.738;2023-06-19T08:15:37;27.20;1.40
316;DHT22;14128;48.686;9.738;2023-06-19T08:18:04;27.30;1.00
316;DHT22;14128;48.686;9.738;2023-06-19T08:20:31;27.60;1.00
316;DHT22;14128;48.686;9.738;2023-06-19T08:22:58;27.80;1.00
316;DHT22;14128;48.686;9.738;2023-06-19T08:25:25;28.20;1.00
316;DHT22;14128;48.686;9.738;2023-06-19T08:27:51;28.60;1.00
316;DHT22;14128;48.686;9.738;2023-06-19T08:30:20;28.90;1.00
316;DHT22;14128;48.686;9.738;2023-06-19T08:32:47;29.40;1.00
316;DHT22;14128;48.686;9.738;2023-06-19T08:35:14;29.60;1.00
316;DHT22;14128;48.686;9.738;2023-06-19T08:37:41;29.60;1.00
316;DHT22;14128;48.686;9.738;2023-06-19T08:40:09;29.90;1.00
316;DHT22;14128;48.686;9.738;2023-06-19T08:42:36;30.10;1.00
316;DHT22;14128;48.686;9.738;2023-06-19T08:45:06;30.00;99.90
316;DHT22;14128;48.686;9.738;2023-06-19T08:47:34;30.10;1.00
316;DHT22;14128;48.686;9.738;2023-06-19T08:50:01;29.90;1.00
316;DHT22;14128;48.686;9.738;2023-06-19T08:52:28;29.90;1.00
316;DHT22;14128;48.686;9.738;2023-06-19T08:54:55;29.60;1.00
316;DHT22;14128;48.686;9.738;2023-06-19T08:57:32;29.60;1.00
316;DHT22;14128;48.686;9.738;2023-06-19T08:59:58;29.30;1.00
316;DHT22;14128;48.686;9.738;2023-06-19T09:02:38;29.10;1.00
316;DHT22;14128;48.686;9.738;2023-06-19T09:05:13;28.60;1.00
316;DHT22;14128;48.686;9.738;2023-06-19T09:07:40;28.50;1.00
316;DHT22;14128;48.686;9.738;2023-06-19T09:10:15;28.10;1.00
316;DHT22;14128;48.686;9.738;2023-06-19T09:12:43;27.80;1.00
316;DHT22;14128;48.686;9.738;2023-06-19T09:15:15;27.50;1.00
316;DHT22;14128;48.686;9.738;2023-06-19T09:17:43;27.10;1.00
316;DHT22;14128;48.686;9.738;2023-06-19T09:20:11;26.90;1.00
316;DHT22;14128;48.686;9.738;2023-06-19T09:22:38;26.90;99.90
316;DHT22;14128;48.686;9.738;2023-06-19T09:25:05;26.80;1.00
316;DHT22;14128;48.686;9.738;2023-06-19T09:27:35;26.70;1.00
316;DHT22;14128;48.686;9.738;2023-06-19T09:30:02;26.70;1.40
316;DHT22;14128;48.686;9.738;2023-06-19T09:32:31;26.90;1.00
316;DHT22;14128;48.686;9.738;2023-06-19T09:34:59;27.30;1.00
316;DHT22;14128;48.686;9.738;2023-06-19T09:37:27;27.70;1.00
316;DHT22;14128;48.686;9.738;2023-06-19T09:39:57;28.30;1.00
316;DHT22;14128;48.686;9.738;2023-06-19T09:42:27;28.60;1.00
316;DHT22;14128;48.686;9.738;2023-06-19T09:44:59;29.30;1.00
316;DHT22;14128;48.686;9.738;2023-06-19T09:47:30;30.10;1.00
316;DHT22;14128;48.686;9.738;2023-06-19T09:49:59;30.00;1.00
316;DHT22;14128;48.686;9.738;2023-06-19T09:52:28;30.00;1.00
316;DHT22;14128;48.686;9.738;2023-06-19T09:54:55;30.20;1.00
316;DHT22;14128;48.686;9.738;2023-06-19T09:57:23;30.00;1.00
316;DHT22;14128;48.686;9.738;2023-06-19T09:59:53;29.70;1.00
316;DHT22;14128;48.686;9.738;2023-06-19T10:02:22;29.30;1.00
316;DHT22;14128;48.686;9.738;2023-06-19T10:04:51;29.00;1.00
316;DHT22;14128;48.686;9.738;2023-06-19T10:07:21;28.70;1.00
316;DHT22;14128;48.686;9.738;2023-06-19T10:09:59;28.80;1.00
316;DHT22;14128;48.686;9.738;2023-06-19T10:12:40;28.70;1.00
316;DHT22;14128;48.686;9.738;2023-06-19T10:15:12;28.70;1.00
316;DHT22;14128;48.686;9.738;2023-06-19T10:17:43;28.60;1.00
316;DHT22;14128;48.686;9.738;2023-06-19T10:20:20;28.80;1.00
316;DHT22;14128;48.686;9.738;2023-06-19T10:22:59;28.70;1.00
316;DHT22;14128;48.686;9.738;2023-06-19T10:25:29;28.80;1.00
316;DHT22;14128;48.686;9.738;2023-06-19T10:27:57;29.00;1.00
316;DHT22;14128;48.686;9.738;2023-06-19T10:30:24;28.80;1.00
316;DHT22;14128;48.686;9.738;2023-06-19T10:32:51;28.70;1.00
316;DHT22;14128;48.686;9.738;2023-06-19T10:35:19;28.90;1.00
316;DHT22;14128;48.686;9.738;2023-06-19T10:37:47;28.90;1.00
316;DHT22;14128;48.686;9.738;2023-06-19T10:40:16;28.90;1.00
316;DHT22;14128;48.686;9.738;2023-06-19T10:42:43;29.00;1.00
316;DHT22;14128;48.686;9.738;2023-06-19T10:45:12;29.10;1.00
316;DHT22;14128;48.686;9.738;2023-06-19T10:47:41;29.70;1.00
316;DHT22;14128;48.686;9.738;2023-06-19T10:50:12;30.30;1.00
316;DHT22;14128;48.686;9.738;2023-06-19T10:52:43;30.50;1.00
316;DHT22;14128;48.686;9.738;2023-06-19T10:55:12;31.30;1.00
316;DHT22;14128;48.686;9.738;2023-06-19T10:57:41;32.20;1.00
316;DHT22;14128;48.686;9.738;2023-06-19T11:00:11;32.50;1.00
316;DHT22;14128;48.686;9.738;2023-06-19T11:02:39;32.50;1.00
316;DHT22;14128;48.686;9.738;2023-06-19T11:05:09;32.20;1.00
316;DHT22;14128;48.686;9.738;2023-06-19T11:07:36;32.80;1.00
316;DHT22;14128;48.686;9.738;2023-06-19T11:10:04;33.10;1.00
316;DHT22;14128;48.686;9.738;2023-06-19T11:12:31;33.20;1.00
316;DHT22;14128;48.686;9.738;2023-06-19T11:15:03;32.90;1.00
316;DHT22;14128;48.686;9.738;2023-06-19T11:17:30;33.20;1.00
316;DHT22;14128;48.686;9.738;2023-06-19T11:19:57;33.00;1.00
316;DHT22;14128;48.686;9.738;2023-06-19T11:22:37;32.20;1.00
316;DHT22;14128;48.686;9.738;2023-06-19T11:25:07;31.40;1.00
316;DHT22;14128;48.686;9.738;2023-06-19T11:27:34;31.20;1.00
316;DHT22;14128;48.686;9.738;2023-06-19T11:30:06;30.80;1.00
316;DHT22;14128;48.686;9.738;2023-06-19T11:32:35;30.80;1.00
316;DHT22;14128;48.686;9.738;2023-06-19T11:35:08;30.60;1.00
316;DHT22;14128;48.686;9.738;2023-06-19T11:37:36;31.00;1.00
316;DHT22;14128;48.686;9.738;2023-06-19T11:40:03;31.20;1.00
316;DHT22;14128;48.686;9.738;2023-06-19T11:42:45;31.50;1.00
316;DHT22;14128;48.686;9.738;2023-06-19T11:45:14;32.00;1.00
316;DHT22;14128;48.686;9.738;2023-06-19T11:47:43;32.70;1.00
316;DHT22;14128;48.686;9.738;2023-06-19T11:50:11;33.40;8.40
316;DHT22;14128;48.686;9.738;2023-06-19T11:52:38;33.50;81.60
316;DHT22;14128;48.686;9.738;2023-06-19T11:55:06;33.50;67.90
316;DHT22;14128;48.686;9.738;2023-06-19T11:57:33;33.40;99.90
316;DHT22;14128;48.686;9.738;2023-06-19T11:59:59;33.70;99.90
316;DHT22;14128;48.686;9.738;2023-06-19T12:02:28;34.40;1.00
316;DHT22;14128;48.686;9.738;2023-06-19T12:04:54;35.00;1.00
316;DHT22;14128;48.686;9.738;2023-06-19T12:07:21;35.30;1.00
316;DHT22;14128;48.686;9.738;2023-06-19T12:09:48;34.40;72.60
316;DHT22;14128;48.686;9.738;2023-06-19T12:12:15;34.10;1.00
316;DHT22;14128;48.686;9.738;2023-06-19T12:14:42;33.60;25.30
316;DHT22;14128;48.686;9.738;2023-06-19T12:17:09;33.70;65.10
316;DHT22;14128;48.686;9.738;2023-06-19T12:19:38;33.50;99.90
316;DHT22;14128;48.686;9.738;2023-06-19T12:22:05;33.30;1.00
316;DHT22;14128;48.686;9.738;2023-06-19T12:24:31;33.20;1.00
316;DHT22;14128;48.686;9.738;2023-06-19T12:26:58;33.20;50.90
316;DHT22;14128;48.686;9.738;2023-06-19T12:29:25;33.20;1.00
316;DHT22;14128;48.686;9.738;2023-06-19T12:31:52;33.20;1.00
316;DHT22;14128;48.686;9.738;2023-06-19T12:34:19;33.40;67.10
316;DHT22;14128;48.686;9.738;2023-06-19T12:36:47;33.80;1.00
316;DHT22;14128;48.686;9.738;2023-06-19T12:39:15;34.10;1.00
316;DHT22;14128;48.686;9.738;2023-06-19T12:41:42;34.50;96.90
316;DHT22;14128;48.686;9.738;2023-06-19T12:44:09;34.40;99.90
316;DHT22;14128;48.686;9.738;2023-06-19T12:46:36;35.10;99.90
316;DHT22;14128;48.686;9.738;2023-06-19T12:49:03;35.70;1.00
316;DHT22;14128;48.686;9.738;2023-06-19T12:51:30;36.30;99.90
316;DHT22;14128;48.686;9.738;2023-06-19T12:53:58;36.20;99.90
316;DHT22;14128;48.686;9.738;2023-06-19T12:56:25;35.70;99.90
316;DHT22;14128;48.686;9.738;2023-06-19T12:58:52;34.90;1.00
316;DHT22;14128;48.686;9.738;2023-06-19T13:01:19;35.30;1.00
316;DHT22;14128;48.686;9.738;2023-06-19T13:03:45;35.90;70.40
316;DHT22;14128;48.686;9.738;2023-06-19T13:06:12;35.70;86.20
316;DHT22;14128;48.686;9.738;2023-06-19T13:08:39;35.80;99.90
316;DHT22;14128;48.686;9.738;2023-06-19T13:11:07;36.50;99.90
316;DHT22;14128;48.686;9.738;2023-06-19T13:13:34;37.30;99.90
316;DHT22;14128;48.686;9.738;2023-06-19T13:16:01;38.40;99.90
316;DHT22;14128;48.686;9.738;2023-06-19T13:18:28;39.60;99.90
316;DHT22;14128;48.686;9.738;2023-06-19T13:20:55;40.00;22.90
316;DHT22;14128;48.686;9.738;2023-06-19T13:23:21;38.90;99.90
316;DHT22;14128;48.686;9.738;2023-06-19T13:25:48;39.40;1.00
316;DHT22;14128;48.686;9.738;2023-06-19T13:28:16;40.30;83.70
316;DHT22;14128;48.686;9.738;2023-06-19T13:30:43;40.30;99.90
316;DHT22;14128;48.686;9.738;2023-06-19T13:33:10;39.60;47.10
316;DHT22;14128;48.686;9.738;2023-06-19T13:35:37;40.50;99.90
316;DHT22;14128;48.686;9.738;2023-06-19T13:38:04;40.70;99.90
316;DHT22;14128;48.686;9.738;2023-06-19T13:40:32;42.20;99.90
316;DHT22;14128;48.686;9.738;2023-06-19T13:42:58;43.10;1.00
316;DHT22;14128;48.686;9.738;2023-06-19T13:45:29;43.10;99.90
316;DHT22;14128;48.686;9.738;2023-06-19T13:47:57;43.80;99.90
316;DHT22;14128;48.686;9.738;2023-06-19T13:50:24;44.40;99.90
316;DHT22;14128;48.686;9.738;2023-06-19T13:52:51;45.10;99.90
316;DHT22;14128;48.686;9.738;2023-06-19T13:55:20;46.20;99.90
316;DHT22;14128;48.686;9.738;2023-06-19T13:57:48;47.70;54.60
316;DHT22;14128;48.686;9.738;2023-06-19T14:00:16;48.80;99.90
316;DHT22;14128;48.686;9.738;2023-06-19T14:02:45;47.80;99.90
316;DHT22;14128;48.686;9.738;2023-06-19T14:05:12;45.30;1.00
316;DHT22;14128;48.686;9.738;2023-06-19T14:07:41;43.90;99.90
316;DHT22;14128;48.686;9.738;2023-06-19T14:10:08;44.30;1.00
316;DHT22;14128;48.686;9.738;2023-06-19T14:12:35;44.60;11.90
316;DHT22;14128;48.686;9.738;2023-06-19T14:15:02;46.50;1.00
316;DHT22;14128;48.686;9.738;2023-06-19T14:17:29;47.80;1.00
316;DHT22;14128;48.686;9.738;2023-06-19T14:19:57;49.20;99.90
316;DHT22;14128;48.686;9.738;2023-06-19T14:22:24;50.00;99.90
316;DHT22;14128;48.686;9.738;2023-06-19T14:24:51;50.10;62.30
316;DHT22;14128;48.686;9.738;2023-06-19T14:27:24;50.80;62.20
316;DHT22;14128;48.686;9.738;2023-06-19T14:29:50;52.40;1.00
316;DHT22;14128;48.686;9.738;2023-06-19T14:32:19;52.90;1.00
316;DHT22;14128;48.686;9.738;2023-06-19T14:34:45;51.00;1.00
316;DHT22;14128;48.686;9.738;2023-06-19T14:37:14;50.20;99.90
316;DHT22;14128;48.686;9.738;2023-06-19T14:39:41;49.20;1.00
316;DHT22;14128;48.686;9.738;2023-06-19T14:42:08;48.00;99.90
316;DHT22;14128;48.686;9.738;2023-06-19T14:44:35;46.70;11.40
316;DHT22;14128;48.686;9.738;2023-06-19T14:47:03;47.60;99.90
316;DHT22;14128;48.686;9.738;2023-06-19T14:49:30;47.00;99.90
316;DHT22;14128;48.686;9.738;2023-06-19T14:51:56;45.00;99.90
316;DHT22;14128;48.686;9.738;2023-06-19T14:54:25;43.20;43.80
316;DHT22;14128;48.686;9.738;2023-06-19T14:56:51;44.00;1.00
316;DHT22;14128;48.686;9.738;2023-06-19T14:59:19;45.40;99.90
316;DHT22;14128;48.686;9.738;2023-06-19T15:01:45;44.40;99.90
316;DHT22;14128;48.686;9.738;2023-06-19T15:04:12;44.10;99.90
316;DHT22;14128;48.686;9.738;2023-06-19T15:06:39;44.50;99.90
316;DHT22;14128;48.686;9.738;2023-06-19T15:09:06;45.90;99.90
316;DHT22;14128;48.686;9.738;2023-06-19T15:11:35;46.30;99.90
316;DHT22;14128;48.686;9.738;2023-06-19T15:14:01;46.20;99.90
316;DHT22;14128;48.686;9.738;2023-06-19T15:16:28;46.90;1.00
316;DHT22;14128;48.686;9.738;2023-06-19T15:18:55;46.30;99.90
316;DHT22;14128;48.686;9.738;2023-06-19T15:21:22;43.70;99.90
316;DHT22;14128;48.686;9.738;2023-06-19T15:23:52;42.30;1.00
316;DHT22;14128;48.686;9.738;2023-06-19T15:26:19;42.60;99.90
316;DHT22;14128;48.686;9.738;2023-06-19T15:28:47;43.30;99.90
316;DHT22;14128;48.686;9.738;2023-06-19T15:31:14;43.70;99.90
316;DHT22;14128;48.686;9.738;2023-06-19T15:33:42;42.90;99.90
316;DHT22;14128;48.686;9.738;2023-06-19T15:36:09;44.10;99.90
316;DHT22;14128;48.686;9.738;2023-06-19T15:38:38;45.20;99.90
316;DHT22;14128;48.686;9.738;2023-06-19T15:41:05;45.70;99.90
316;DHT22;14128;48.686;9.738;2023-06-19T15:43:32;46.00;1.00
316;DHT22;14128;48.686;9.738;2023-06-19T15:46:00;45.80;1.00
316;DHT22;14128;48.686;9.738;2023-06-19T15:48:29;46.20;1.00
316;DHT22;14128;48.686;9.738;2023-06-19T15:50:56;46.30;1.00
316;DHT22;14128;48.686;9.738;2023-06-19T15:53:23;46.70;65.70
316;DHT22;14128;48.686;9.738;2023-06-19T15:55:50;45.80;1.00
316;DHT22;14128;48.686;9.738;2023-06-19T15:58:17;43.70;1.00
316;DHT22;14128;48.686;9.738;2023-06-19T16:00:44;44.60;1.00
316;DHT22;14128;48.686;9.738;2023-06-19T16:03:15;42.40;1.00
316;DHT22;14128;48.686;9.738;2023-06-19T16:05:42;41.20;99.90
316;DHT22;14128;48.686;9.738;2023-06-19T16:08:10;39.10;99.90
316;DHT22;14128;48.686;9.738;2023-06-19T16:10:37;37.30;99.90
316;DHT22;14128;48.686;9.738;2023-06-19T16:13:04;36.00;99.90